Terminal Aerodrome Forecast
Issued by NWS Cleveland, OH

Home | Current Version | Previous Version | Graphics & Text | Print | Product List | Glossary On
Versions: 1 2 3 4 5 6 7 8 9 10 11 12 13 14 15 16 17 18 19 20
000
FTUS41 KCLE 200500
TAFYNG
TAF
KYNG 200528Z 2006/2106 19007KT P6SM BKN140
     FM201500 18012G18KT P6SM BKN080 OVC120
     FM202200 21012G18KT 5SM -SHRA BKN025 OVC040=

USA.gov is the U.S. government's official web portal to all federal, state and local government web resources and services.